Estestar — 3ECR8 — position and weather

sailwx.info

Track history (hours):
 
Tides and Currents Weather Stations Pressure Air Temp Water Temp Dewpoint Dewpoint Depression Visibility Wind Speed Wind Dir Waves Ship Positions

Estestar

Last reported at 2016-May-02 05:33 UTC. Time now 2016-May-03 06:53 UTC.
Position N 40°55' E 028°59'.

Length 133 m; draft 4.2 m.

Type: Cargo ship. MMSI: 371448000.

Date/timePositionNaut miles runAvg speedWind from/ knotsBaromVisibWave heightAir tempDewpointWater temp
2016-May-02 05:33N 40°55' E 028°59'8 7.6
2016-May-02 04:33N 40°50' E 029°06'5 4.8
2016-May-02 03:31N 40°50' E 029°13'0 0.0
2016-May-02 02:31N 40°50' E 029°13'0 0.0
2016-May-02 01:31N 40°50' E 029°13'0 0.0
2016-May-02 00:31N 40°50' E 029°13'0 0.0
2016-May-01 23:31N 40°50' E 029°13'0 0.0
2016-May-01 22:31N 40°50' E 029°13'0 0.0
2016-May-01 21:31N 40°50' E 029°13'0 0.0
2016-May-01 20:31N 40°50' E 029°13'0 0.0
2016-May-01 19:25N 40°50' E 029°13'0 0.0
2016-May-01 18:31N 40°50' E 029°13'0 0.0
2016-May-01 17:31N 40°50' E 029°13'1 1.3
2016-May-01 16:26N 40°50' E 029°15'0 0.0
2016-May-01 15:32N 40°50' E 029°15'0 0.0
2016-May-01 14:20N 40°50' E 029°15'0 0.0
2016-May-01 13:32N 40°50' E 029°15'0 0.0
2016-May-01 12:32N 40°50' E 029°15'0 0.0
2016-May-01 11:32N 40°50' E 029°15'0 0.0
2016-May-01 10:32N 40°50' E 029°15'0 0.0
2016-May-01 09:32N 40°50' E 029°15'0 0.0
2016-May-01 08:32N 40°50' E 029°15'0 0.0
2016-May-01 07:26N 40°50' E 029°15'0 0.0
2016-May-01 06:32N 40°50' E 029°15'0 0.0
2016-May-01 05:33N 40°50' E 029°15'0 0.0
2016-May-01 04:33N 40°50' E 029°15'0 0.0
2016-May-01 03:33N 40°50' E 029°15'0 0.0
2016-May-01 02:33N 40°50' E 029°15'0 0.0
2016-May-01 01:33N 40°50' E 029°15'1 1.0
2016-May-01 00:33N 40°51' E 029°14'0 0.0
2016-Apr-30 23:33N 40°51' E 029°14'0 0.0
2016-Apr-30 22:33N 40°51' E 029°14'1 0.7
2016-Apr-30 21:33N 40°51' E 029°15'1 0.5
2016-Apr-30 20:33N 40°51' E 029°15'0 0.0
2016-Apr-30 19:33N 40°51' E 029°15'0 0.0
2016-Apr-30 18:33N 40°51' E 029°15'0 0.0
2016-Apr-30 17:33N 40°51' E 029°15'0 0.1
2016-Apr-30 16:33N 40°51' E 029°15'1 1.0
2016-Apr-30 15:33N 40°50' E 029°16'  
Track history (hours):
 
Tides and Currents Weather Stations Pressure Air Temp Water Temp Dewpoint Dewpoint Depression Visibility Wind Speed Wind Dir Waves Ship Positions

Estestar

Last reported at 2016-May-02 05:33 UTC. Time now 2016-May-03 06:53 UTC.
Position N 40°55' E 028°59'.

Length 133 m; draft 4.2 m.

Type: Cargo ship. MMSI: 371448000.

Date/timePositionNaut miles runAvg speedWind from/ knotsBaromVisibWave heightAir tempDewpointWater temp
2016-May-02 05:33N 40°55' E 028°59'8 7.6
2016-May-02 04:33N 40°50' E 029°06'5 4.8
2016-May-02 03:31N 40°50' E 029°13'0 0.0
2016-May-02 02:31N 40°50' E 029°13'0 0.0
2016-May-02 01:31N 40°50' E 029°13'0 0.0
2016-May-02 00:31N 40°50' E 029°13'0 0.0
2016-May-01 23:31N 40°50' E 029°13'0 0.0
2016-May-01 22:31N 40°50' E 029°13'0 0.0
2016-May-01 21:31N 40°50' E 029°13'0 0.0
2016-May-01 20:31N 40°50' E 029°13'0 0.0
2016-May-01 19:25N 40°50' E 029°13'0 0.0
2016-May-01 18:31N 40°50' E 029°13'0 0.0
2016-May-01 17:31N 40°50' E 029°13'1 1.3
2016-May-01 16:26N 40°50' E 029°15'0 0.0
2016-May-01 15:32N 40°50' E 029°15'0 0.0
2016-May-01 14:20N 40°50' E 029°15'0 0.0
2016-May-01 13:32N 40°50' E 029°15'0 0.0
2016-May-01 12:32N 40°50' E 029°15'0 0.0
2016-May-01 11:32N 40°50' E 029°15'0 0.0
2016-May-01 10:32N 40°50' E 029°15'0 0.0
2016-May-01 09:32N 40°50' E 029°15'0 0.0
2016-May-01 08:32N 40°50' E 029°15'0 0.0
2016-May-01 07:26N 40°50' E 029°15'0 0.0
2016-May-01 06:32N 40°50' E 029°15'0 0.0
2016-May-01 05:33N 40°50' E 029°15'0 0.0
2016-May-01 04:33N 40°50' E 029°15'0 0.0
2016-May-01 03:33N 40°50' E 029°15'0 0.0
2016-May-01 02:33N 40°50' E 029°15'0 0.0
2016-May-01 01:33N 40°50' E 029°15'1 1.0
2016-May-01 00:33N 40°51' E 029°14'0 0.0
2016-Apr-30 23:33N 40°51' E 029°14'0 0.0
2016-Apr-30 22:33N 40°51' E 029°14'1 0.7
2016-Apr-30 21:33N 40°51' E 029°15'1 0.5
2016-Apr-30 20:33N 40°51' E 029°15'0 0.0
2016-Apr-30 19:33N 40°51' E 029°15'0 0.0
2016-Apr-30 18:33N 40°51' E 029°15'0 0.0
2016-Apr-30 17:33N 40°51' E 029°15'0 0.1
2016-Apr-30 16:33N 40°51' E 029°15'1 1.0
2016-Apr-30 15:33N 40°50' E 029°16'  

Dump ship's entire track history